createdAt,value
2019-05-02T00:01:41.507Z,37.90
2019-05-02T00:04:12.407Z,36.80
2019-05-02T00:06:38.121Z,36.07
2019-05-02T00:09:09.159Z,37.53
2019-05-02T00:11:36.284Z,38.70
2019-05-02T00:14:03.631Z,37.10
2019-05-02T00:16:30.764Z,36.47
2019-05-02T00:18:57.483Z,39.87
2019-05-02T00:21:24.735Z,38.73
2019-05-02T00:23:51.483Z,35.40
2019-05-02T00:26:18.175Z,38.70
2019-05-02T00:28:47.925Z,37.47
2019-05-02T00:31:13.925Z,38.53
2019-05-02T00:33:40.860Z,38.23
2019-05-02T00:36:07.549Z,40.03
2019-05-02T00:38:38.331Z,39.37
2019-05-02T00:41:03.951Z,38.07
2019-05-02T00:43:34.595Z,39.30
2019-05-02T00:46:00.956Z,39.53
2019-05-02T00:48:39.560Z,38.83
2019-05-02T00:51:06.374Z,38.77
2019-05-02T00:53:33.197Z,39.40
2019-05-02T00:55:59.882Z,38.03
2019-05-02T00:58:27.311Z,38.27
2019-05-02T01:01:11.543Z,39.07
2019-05-02T01:03:40.726Z,40.07
2019-05-02T01:06:13.907Z,39.60
2019-05-02T01:08:36.977Z,40.60
2019-05-02T01:11:04.121Z,38.77
2019-05-02T01:13:31.089Z,39.90
2019-05-02T01:15:57.814Z,41.70
2019-05-02T01:18:24.926Z,38.50
2019-05-02T01:20:51.655Z,39.97
2019-05-02T01:23:22.927Z,39.80
2019-05-02T01:25:52.632Z,41.90
2019-05-02T01:28:34.884Z,39.80
2019-05-02T01:31:16.642Z,41.03
2019-05-02T01:33:45.891Z,38.97
2019-05-02T01:36:17.335Z,40.93
2019-05-02T01:38:46.384Z,40.73
2019-05-02T01:41:13.200Z,40.37
2019-05-02T01:43:40.092Z,41.77
2019-05-02T01:46:06.830Z,42.97
2019-05-02T01:48:33.725Z,42.23
2019-05-02T01:51:04.327Z,41.93
2019-05-02T01:53:34.146Z,44.37
2019-05-02T01:55:59.416Z,42.97
2019-05-02T01:58:26.298Z,43.70
2019-05-02T02:00:53.224Z,43.23
2019-05-02T02:03:20.059Z,44.90
2019-05-02T02:05:46.988Z,45.03
2019-05-02T02:08:13.808Z,43.37
2019-05-02T02:10:43.704Z,42.90
2019-05-02T02:13:09.536Z,44.53
2019-05-02T02:15:36.441Z,43.77
2019-05-02T02:18:03.567Z,45.27
2019-05-02T02:20:35.113Z,46.17
2019-05-02T02:23:29.263Z,44.20
2019-05-02T02:26:01.605Z,43.63
2019-05-02T02:28:31.997Z,44.40
2019-05-02T02:30:58.069Z,45.37
2019-05-02T02:33:25.925Z,45.57
2019-05-02T02:35:53.290Z,43.80
2019-05-02T02:38:19.985Z,44.33
2019-05-02T02:40:47.054Z,43.43
2019-05-02T02:43:32.959Z,42.70
2019-05-02T02:46:01.871Z,43.97
2019-05-02T02:48:34.059Z,43.50
2019-05-02T02:50:58.050Z,46.03
2019-05-02T02:53:30.659Z,45.40
2019-05-02T02:56:01.702Z,45.37
2019-05-02T02:58:28.312Z,44.23
2019-05-02T03:00:55.439Z,44.57
2019-05-02T03:03:27.799Z,44.33
2019-05-02T03:05:51.250Z,46.47
2019-05-02T03:08:18.241Z,46.40
2019-05-02T03:10:46.652Z,44.87
2019-05-02T03:13:51.394Z,45.80
2019-05-02T03:16:11.058Z,46.50
2019-05-02T03:18:40.790Z,46.27
2019-05-02T03:21:07.008Z,47.07
2019-05-02T03:23:34.705Z,47.00
2019-05-02T03:26:08.024Z,49.00
2019-05-02T03:28:30.992Z,48.40
2019-05-02T03:30:58.311Z,47.70
2019-05-02T03:33:25.186Z,47.87
2019-05-02T03:35:52.011Z,47.47
2019-05-02T03:38:31.659Z,48.47
2019-05-02T03:40:48.041Z,49.30
2019-05-02T03:43:19.055Z,48.63
2019-05-02T03:45:43.908Z,46.77
2019-05-02T03:48:11.106Z,45.50
2019-05-02T03:50:38.512Z,44.93
2019-05-02T03:53:05.495Z,46.27
2019-05-02T03:55:33.968Z,44.77
2019-05-02T03:58:13.121Z,47.10
2019-05-02T04:00:35.426Z,46.03
2019-05-02T04:03:02.936Z,48.53
2019-05-02T04:05:33.666Z,47.03
2019-05-02T04:07:59.097Z,46.60
2019-05-02T04:11:07.177Z,48.87
2019-05-02T04:13:36.302Z,47.20
2019-05-02T04:16:14.315Z,47.73
2019-05-02T04:18:33.441Z,46.73
2019-05-02T04:21:00.953Z,49.00
2019-05-02T04:23:29.863Z,48.47
2019-05-02T04:25:57.506Z,48.60
2019-05-02T04:28:24.176Z,49.30
2019-05-02T04:30:53.513Z,50.00
2019-05-02T04:33:20.020Z,48.57
2019-05-02T04:35:46.723Z,48.17
2019-05-02T04:38:20.068Z,49.57
2019-05-02T04:40:46.377Z,49.87
2019-05-02T04:43:11.645Z,50.60
2019-05-02T04:45:53.105Z,49.27
2019-05-02T04:48:08.556Z,50.63
2019-05-02T04:50:37.713Z,49.53
2019-05-02T04:53:04.165Z,50.87
2019-05-02T04:55:33.470Z,49.23
2019-05-02T04:58:01.806Z,47.80
2019-05-02T05:00:28.955Z,52.13
2019-05-02T05:02:58.031Z,48.13
2019-05-02T05:05:26.007Z,50.60
2019-05-02T05:07:53.444Z,51.93
2019-05-02T05:10:20.917Z,48.97
2019-05-02T05:12:47.999Z,51.70
2019-05-02T05:15:33.858Z,53.60
2019-05-02T05:17:44.144Z,51.60
2019-05-02T05:20:15.547Z,50.23
2019-05-02T05:22:44.186Z,50.70
2019-05-02T05:25:17.771Z,50.53
2019-05-02T05:27:42.833Z,49.13
2019-05-02T05:30:15.545Z,51.90
2019-05-02T05:32:38.668Z,49.17
2019-05-02T05:35:08.926Z,50.30
2019-05-02T05:37:34.840Z,51.57
2019-05-02T05:40:01.560Z,52.27
2019-05-02T05:45:08.512Z,54.03
2019-05-02T05:47:32.187Z,52.90
2019-05-02T05:50:00.981Z,51.93
2019-05-02T05:52:27.880Z,50.47
2019-05-02T05:54:54.855Z,52.70
2019-05-02T05:57:21.571Z,55.23
2019-05-02T05:59:48.636Z,51.40
2019-05-02T06:02:15.480Z,51.67
2019-05-02T06:04:42.514Z,51.50
2019-05-02T06:07:09.326Z,53.60
2019-05-02T06:09:36.042Z,52.13
2019-05-02T06:12:03.423Z,54.57
2019-05-02T06:14:30.113Z,55.80
2019-05-02T06:16:56.822Z,53.03
2019-05-02T06:19:23.531Z,54.60
2019-05-02T06:21:50.713Z,53.77
2019-05-02T06:24:17.420Z,54.73
2019-05-02T06:26:44.781Z,54.30
2019-05-02T06:29:18.406Z,54.87
2019-05-02T06:31:43.015Z,53.00
2019-05-02T06:34:10.224Z,53.10
2019-05-02T06:36:38.071Z,54.20
2019-05-02T06:39:05.233Z,54.07
2019-05-02T06:41:31.926Z,52.80
2019-05-02T06:43:58.884Z,57.80
2019-05-02T06:46:27.777Z,55.00
2019-05-02T06:48:54.541Z,55.07
2019-05-02T06:51:21.272Z,55.40
2019-05-02T06:53:48.967Z,55.20
2019-05-02T06:56:16.517Z,57.23
2019-05-02T06:58:43.364Z,55.53
2019-05-02T07:01:10.482Z,56.70
2019-05-02T07:03:41.419Z,57.13
2019-05-02T07:06:07.681Z,54.93
2019-05-02T07:08:34.992Z,52.93
2019-05-02T07:11:03.174Z,55.13
2019-05-02T07:13:31.472Z,53.90
2019-05-02T07:16:10.520Z,54.90
2019-05-02T07:18:47.070Z,56.60
2019-05-02T07:21:12.111Z,55.73
2019-05-02T07:23:39.715Z,59.93
2019-05-02T07:26:06.549Z,56.60
2019-05-02T07:28:33.317Z,51.23
2019-05-02T07:31:00.563Z,58.23
2019-05-02T07:33:32.271Z,54.90
2019-05-02T07:36:00.070Z,58.00
2019-05-02T07:38:27.432Z,59.87
2019-05-02T07:40:54.350Z,58.57
2019-05-02T07:43:22.351Z,58.70
2019-05-02T07:45:49.169Z,57.87
2019-05-02T07:48:17.722Z,57.67
2019-05-02T07:50:46.452Z,56.93
2019-05-02T07:53:14.299Z,51.23
2019-05-02T07:55:42.751Z,56.97
2019-05-02T07:58:09.812Z,53.67
2019-05-02T08:00:38.345Z,55.40
2019-05-02T08:03:05.387Z,52.38
2019-05-02T08:05:32.060Z,54.25
2019-05-02T08:07:58.788Z,56.85
2019-05-02T08:10:25.963Z,54.80
2019-05-02T08:12:52.651Z,56.45
2019-05-02T08:15:20.156Z,53.85
2019-05-02T08:17:53.207Z,54.33
2019-05-02T08:20:18.997Z,56.05
2019-05-02T08:22:49.044Z,55.52
2019-05-02T08:25:13.375Z,53.13
2019-05-02T08:27:51.347Z,52.33
2019-05-02T08:30:23.052Z,50.10
2019-05-02T08:32:49.735Z,50.00
2019-05-02T08:35:16.588Z,52.65
2019-05-02T08:37:43.286Z,52.03
2019-05-02T08:40:11.042Z,49.75
2019-05-02T08:42:39.016Z,49.40
2019-05-02T08:45:06.226Z,50.12
2019-05-02T08:47:33.191Z,50.05
2019-05-02T08:50:00.095Z,50.50
2019-05-02T08:52:27.171Z,51.42
2019-05-02T08:54:54.163Z,49.75
2019-05-02T08:57:23.628Z,50.17
2019-05-02T08:59:49.535Z,49.65
2019-05-02T09:02:16.261Z,48.68
2019-05-02T09:04:43.060Z,48.00
2019-05-02T09:07:10.009Z,48.40
2019-05-02T09:09:36.808Z,50.50
2019-05-02T09:12:12.136Z,49.45
2019-05-02T09:14:32.671Z,50.15
2019-05-02T09:17:00.138Z,50.67
2019-05-02T09:19:31.673Z,48.00
2019-05-02T09:21:57.504Z,48.70
2019-05-02T09:24:24.449Z,48.52
2019-05-02T09:26:51.978Z,47.00
2019-05-02T09:29:19.257Z,45.57
2019-05-02T09:31:46.271Z,45.97
2019-05-02T09:34:17.050Z,45.80
2019-05-02T09:36:42.004Z,44.00
2019-05-02T09:39:08.995Z,44.10
2019-05-02T09:41:36.379Z,44.67
2019-05-02T09:44:03.560Z,44.20
2019-05-02T09:46:32.493Z,43.00
2019-05-02T09:49:02.892Z,43.80
2019-05-02T09:51:27.925Z,44.53
2019-05-02T09:53:57.159Z,46.27
2019-05-02T09:56:26.329Z,42.37
2019-05-02T09:58:55.069Z,42.80
2019-05-02T10:01:33.034Z,40.67
2019-05-02T10:03:59.750Z,41.43
2019-05-02T10:06:27.027Z,41.73
2019-05-02T10:08:53.942Z,40.50
2019-05-02T10:11:22.487Z,42.27
2019-05-02T10:13:51.732Z,40.37
2019-05-02T10:16:23.568Z,41.10
2019-05-02T10:18:47.412Z,41.67
2019-05-02T10:21:17.139Z,41.07
2019-05-02T10:23:42.829Z,38.60
2019-05-02T10:26:14.659Z,40.43
2019-05-02T10:28:41.843Z,40.53
2019-05-02T10:31:07.964Z,38.53
2019-05-02T10:33:37.616Z,39.33
2019-05-02T10:36:04.012Z,36.40
2019-05-02T10:38:32.570Z,40.90
2019-05-02T10:41:02.638Z,39.10
2019-05-02T10:43:28.834Z,36.83
2019-05-02T10:46:01.815Z,39.83
2019-05-02T10:48:29.267Z,37.43
2019-05-02T10:51:15.879Z,40.57
2019-05-02T10:53:46.978Z,38.33
2019-05-02T10:56:11.819Z,38.07
2019-05-02T10:58:38.740Z,39.07
2019-05-02T11:01:06.758Z,38.33
2019-05-02T11:03:43.031Z,34.23
2019-05-02T11:06:07.820Z,36.07
2019-05-02T11:08:36.688Z,37.50
2019-05-02T11:11:06.278Z,36.15
2019-05-02T11:13:42.491Z,32.97
2019-05-02T11:16:47.259Z,31.23
2019-05-02T11:19:24.430Z,31.47
2019-05-02T11:21:56.418Z,31.37
2019-05-02T11:24:19.840Z,29.73
2019-05-02T11:26:52.809Z,27.27
2019-05-02T11:29:24.008Z,20.93
2019-05-02T11:31:57.686Z,21.40
2019-05-02T11:34:41.972Z,21.70
2019-05-02T11:37:18.724Z,20.12
2019-05-02T11:39:51.483Z,16.57
2019-05-02T11:42:17.662Z,19.83
2019-05-02T11:44:43.188Z,13.20
2019-05-02T11:47:09.892Z,13.15
2019-05-02T11:49:36.856Z,13.85
2019-05-02T11:52:04.754Z,14.93
2019-05-02T11:54:32.066Z,12.20
2019-05-02T11:56:59.256Z,11.53
2019-05-02T11:59:28.207Z,11.47
2019-05-02T12:02:03.365Z,12.63
2019-05-02T12:04:32.448Z,12.80
2019-05-02T12:07:01.221Z,13.43
2019-05-02T12:09:28.099Z,14.27
2019-05-02T12:11:56.681Z,15.20
2019-05-02T12:14:27.423Z,14.40
2019-05-02T12:16:52.823Z,15.10
2019-05-02T12:19:19.884Z,17.70
2019-05-02T12:21:53.019Z,17.17
2019-05-02T12:24:19.735Z,17.57
2019-05-02T12:26:46.706Z,19.00
2019-05-02T12:29:13.683Z,17.73
2019-05-02T12:31:42.524Z,17.40
2019-05-02T12:34:09.160Z,15.87
2019-05-02T12:36:36.231Z,14.93
2019-05-02T12:39:04.935Z,14.00
2019-05-02T12:41:33.143Z,16.10
2019-05-02T12:44:02.081Z,16.07
2019-05-02T12:46:28.783Z,15.23
2019-05-02T12:48:55.489Z,16.47
2019-05-02T12:51:22.669Z,14.07
2019-05-02T12:53:49.444Z,15.53
2019-05-02T12:56:16.178Z,15.07
2019-05-02T12:58:43.212Z,16.13
2019-05-02T13:01:12.205Z,16.07
2019-05-02T13:03:46.697Z,15.30
2019-05-02T13:06:13.697Z,17.07
2019-05-02T13:08:49.093Z,17.48
2019-05-02T13:11:24.628Z,19.17
2019-05-02T13:13:53.339Z,17.67
2019-05-02T13:16:22.549Z,18.77
2019-05-02T13:18:49.391Z,18.50
2019-05-02T13:21:23.337Z,16.97
2019-05-02T13:23:55.507Z,18.83
2019-05-02T13:26:26.994Z,18.20
2019-05-02T13:28:51.698Z,18.10
2019-05-02T13:31:27.138Z,17.40
2019-05-02T13:34:14.725Z,15.90
2019-05-02T13:36:43.871Z,17.40
2019-05-02T13:39:19.365Z,16.40
2019-05-02T13:41:46.281Z,16.60
2019-05-02T13:44:16.277Z,17.07
2019-05-02T13:46:43.297Z,17.37
2019-05-02T13:49:10.292Z,17.33
2019-05-02T13:51:37.091Z,18.67
2019-05-02T13:54:04.195Z,19.80
2019-05-02T13:56:52.868Z,20.47
2019-05-02T13:59:22.212Z,18.47
2019-05-02T14:01:52.122Z,18.27
2019-05-02T14:04:19.332Z,17.23
2019-05-02T14:06:46.135Z,18.47
2019-05-02T14:09:28.464Z,15.90
2019-05-02T14:12:03.608Z,14.60
2019-05-02T14:14:32.461Z,15.17
2019-05-02T14:16:59.191Z,15.43
2019-05-02T14:19:26.274Z,15.37
2019-05-02T14:21:53.001Z,14.90
2019-05-02T14:24:23.077Z,15.90
2019-05-02T14:26:52.399Z,15.50
2019-05-02T14:29:19.220Z,16.37
2019-05-02T14:31:46.225Z,15.40
2019-05-02T14:34:38.339Z,13.83
2019-05-02T14:37:05.163Z,15.10
2019-05-02T14:39:32.592Z,19.93
2019-05-02T14:41:59.381Z,20.53
2019-05-02T14:44:36.236Z,19.47
2019-05-02T14:46:54.934Z,19.73
2019-05-02T14:49:25.426Z,20.03
2019-05-02T14:51:52.385Z,18.70
2019-05-02T14:54:19.198Z,18.03
2019-05-02T14:56:52.150Z,15.57
2019-05-02T14:59:20.132Z,14.53
2019-05-02T15:01:52.736Z,15.00
2019-05-02T15:04:20.052Z,14.43
2019-05-02T15:06:47.557Z,19.17
2019-05-02T15:09:16.803Z,18.00
2019-05-02T15:12:13.527Z,18.60
2019-05-02T15:14:33.530Z,19.20
2019-05-02T15:17:02.514Z,18.23
2019-05-02T15:19:29.607Z,16.93
2019-05-02T15:21:56.415Z,18.47
2019-05-02T15:24:23.200Z,15.83
2019-05-02T15:26:50.049Z,17.57
2019-05-02T15:29:19.630Z,15.90
2019-05-02T15:31:52.793Z,17.53
2019-05-02T15:34:26.157Z,18.57
2019-05-02T15:36:52.877Z,18.47
2019-05-02T15:41:48.708Z,18.90
2019-05-02T15:44:18.964Z,17.63
2019-05-02T15:46:44.657Z,17.73
2019-05-02T15:49:12.308Z,17.87
2019-05-02T15:51:43.683Z,17.87
2019-05-02T15:54:08.940Z,16.80
2019-05-02T15:56:52.270Z,16.77
2019-05-02T15:59:32.433Z,16.60
2019-05-02T16:02:06.986Z,16.53
2019-05-02T16:04:35.527Z,15.33
2019-05-02T16:07:06.931Z,16.17
2019-05-02T16:09:32.891Z,15.83
2019-05-02T16:12:00.166Z,16.03
2019-05-02T16:14:31.356Z,13.80
2019-05-02T16:16:55.679Z,15.20
2019-05-02T16:19:28.771Z,14.87
2019-05-02T16:21:59.513Z,13.67
2019-05-02T16:24:24.831Z,13.50
2019-05-02T16:26:53.142Z,14.27
2019-05-02T16:29:26.809Z,13.13
2019-05-02T16:31:59.706Z,13.80
2019-05-02T16:34:27.458Z,12.43
2019-05-02T16:37:13.621Z,12.90
2019-05-02T16:39:36.337Z,11.93
2019-05-02T16:42:04.761Z,11.60
2019-05-02T16:44:32.270Z,11.93
2019-05-02T16:46:59.080Z,11.50
2019-05-02T16:49:25.817Z,11.17
2019-05-02T16:51:52.965Z,13.13
2019-05-02T16:54:19.833Z,11.37
2019-05-02T16:56:46.861Z,11.23
2019-05-02T16:59:16.968Z,10.47
2019-05-02T17:01:42.562Z,12.10
2019-05-02T17:04:09.337Z,12.07
2019-05-02T17:06:37.749Z,11.97
2019-05-02T17:09:21.764Z,11.37
2019-05-02T17:11:49.223Z,9.80
2019-05-02T17:14:15.959Z,10.80
2019-05-02T17:16:47.073Z,9.70
2019-05-02T17:19:12.290Z,8.93
2019-05-02T17:21:52.865Z,8.07
2019-05-02T17:24:08.252Z,8.73
2019-05-02T17:26:35.195Z,7.97
2019-05-02T17:29:02.503Z,8.10
2019-05-02T17:31:29.280Z,7.40
2019-05-02T17:33:56.134Z,7.67
2019-05-02T17:36:28.629Z,7.83
2019-05-02T17:38:54.219Z,7.90
2019-05-02T17:41:20.283Z,7.87
2019-05-02T17:43:49.040Z,7.37
2019-05-02T17:46:18.345Z,7.67
2019-05-02T17:48:47.716Z,7.73
2019-05-02T17:51:37.741Z,7.80
2019-05-02T17:54:03.115Z,7.40
2019-05-02T17:56:32.429Z,8.07
2019-05-02T17:58:58.825Z,8.23
2019-05-02T18:01:35.804Z,7.90
2019-05-02T18:04:06.984Z,7.67
2019-05-02T18:06:35.315Z,6.77
2019-05-02T18:09:00.116Z,7.20
2019-05-02T18:11:29.546Z,7.43
2019-05-02T18:13:55.616Z,6.93
2019-05-02T18:16:22.356Z,7.00
2019-05-02T18:18:49.233Z,6.40
2019-05-02T18:21:17.700Z,6.87
2019-05-02T18:23:44.693Z,7.30
2019-05-02T18:26:11.568Z,7.30
2019-05-02T18:28:47.039Z,7.27
2019-05-02T18:31:06.983Z,6.53
2019-05-02T18:33:35.954Z,6.87
2019-05-02T18:36:03.546Z,5.67
2019-05-02T18:38:30.240Z,6.77
2019-05-02T18:41:00.269Z,7.47
2019-05-02T18:43:26.127Z,7.97
2019-05-02T18:45:52.846Z,9.17
2019-05-02T18:48:21.859Z,8.77
2019-05-02T18:50:50.143Z,9.00
2019-05-02T18:53:18.693Z,9.37
2019-05-02T18:55:46.483Z,9.17
2019-05-02T18:58:13.611Z,9.07
2019-05-02T19:00:42.078Z,10.13
2019-05-02T19:03:15.134Z,9.20
2019-05-02T19:05:38.622Z,8.27
2019-05-02T19:08:05.912Z,6.80
2019-05-02T19:10:32.648Z,5.80
2019-05-02T19:13:00.972Z,5.20
2019-05-02T19:15:28.327Z,5.20
2019-05-02T19:17:55.350Z,5.23
2019-05-02T19:21:06.592Z,4.40
2019-05-02T19:23:34.514Z,3.73
2019-05-02T19:26:09.660Z,3.67
2019-05-02T19:28:38.344Z,3.70
2019-05-02T19:31:06.823Z,3.97
2019-05-02T19:33:37.303Z,3.63
2019-05-02T19:36:02.957Z,4.33
2019-05-02T19:38:32.298Z,4.27
2019-05-02T19:41:05.574Z,4.37
2019-05-02T19:43:27.211Z,4.50
2019-05-02T19:45:56.236Z,4.30
2019-05-02T19:48:27.436Z,4.77
2019-05-02T19:51:05.398Z,4.90
2019-05-02T19:53:35.901Z,5.07
2019-05-02T19:56:08.834Z,5.20
2019-05-02T19:58:42.639Z,4.10
2019-05-02T20:01:08.503Z,3.70
2019-05-02T20:03:52.057Z,3.47
2019-05-02T20:06:30.040Z,3.63
2019-05-02T20:09:23.240Z,3.60
2019-05-02T20:11:56.355Z,3.93
2019-05-02T20:14:23.336Z,3.53
2019-05-02T20:16:52.994Z,4.00
2019-05-02T20:19:23.261Z,3.83
2019-05-02T20:22:06.600Z,4.20
2019-05-02T20:24:55.435Z,3.67
2019-05-02T20:27:22.438Z,3.63
2019-05-02T20:29:49.650Z,3.20
2019-05-02T20:32:16.468Z,3.17
2019-05-02T20:34:43.301Z,3.77
2019-05-02T20:37:10.319Z,3.50
2019-05-02T20:39:37.105Z,3.43
2019-05-02T20:42:03.949Z,4.30
2019-05-02T20:44:32.104Z,4.60
2019-05-02T20:46:59.204Z,4.03
2019-05-02T20:49:26.288Z,4.30
2019-05-02T20:51:53.004Z,4.60
2019-05-02T20:54:19.705Z,4.30
2019-05-02T20:56:46.926Z,4.33
2019-05-02T20:59:13.741Z,4.53
2019-05-02T21:01:42.704Z,5.13
2019-05-02T21:04:09.178Z,4.90
2019-05-02T21:06:55.545Z,5.20
2019-05-02T21:09:38.953Z,4.93
2019-05-02T21:12:06.548Z,4.83
2019-05-02T21:14:33.490Z,4.80
2019-05-02T21:17:02.034Z,4.83
2019-05-02T21:19:29.012Z,4.77
2019-05-02T21:21:58.225Z,4.63
2019-05-02T21:24:25.380Z,4.77
2019-05-02T21:26:52.626Z,4.33
2019-05-02T21:29:19.385Z,4.33
2019-05-02T21:31:46.112Z,4.00
2019-05-02T21:34:12.801Z,5.00
2019-05-02T21:36:39.941Z,4.93
2019-05-02T21:39:11.876Z,5.33
2019-05-02T21:41:38.860Z,5.07
2019-05-02T21:44:05.894Z,4.93
2019-05-02T21:46:32.840Z,4.80
2019-05-02T21:48:59.537Z,4.83
2019-05-02T21:51:36.861Z,4.97
2019-05-02T21:54:17.484Z,5.07
2019-05-02T21:56:52.203Z,4.90
2019-05-02T21:59:19.087Z,4.63
2019-05-02T22:01:49.144Z,4.70
2019-05-02T22:04:16.420Z,4.03
2019-05-02T22:06:43.319Z,4.87
2019-05-02T22:09:12.221Z,4.50
2019-05-02T22:11:39.654Z,4.43
2019-05-02T22:14:06.483Z,4.13
2019-05-02T22:16:33.300Z,4.00
2019-05-02T22:19:02.692Z,4.23
2019-05-02T22:21:29.320Z,4.27
2019-05-02T22:24:08.238Z,4.63
2019-05-02T22:26:24.792Z,3.90
2019-05-02T22:28:53.627Z,4.17
2019-05-02T22:31:20.322Z,4.37
2019-05-02T22:33:47.566Z,4.87
2019-05-02T22:36:14.604Z,3.93
2019-05-02T22:38:55.089Z,4.03
2019-05-02T22:41:22.182Z,4.97
2019-05-02T22:43:49.428Z,4.80
2019-05-02T22:46:35.807Z,5.83
2019-05-02T22:49:02.725Z,5.67
2019-05-02T22:51:29.444Z,6.00
2019-05-02T22:53:56.129Z,6.20
2019-05-02T22:56:23.212Z,5.70
2019-05-02T22:58:51.532Z,5.87
2019-05-02T23:01:18.595Z,6.23
2019-05-02T23:03:45.316Z,6.30
2019-05-02T23:06:12.542Z,7.07
2019-05-02T23:08:43.354Z,7.10
2019-05-02T23:11:08.997Z,7.37
2019-05-02T23:13:35.809Z,6.77
2019-05-02T23:16:02.976Z,6.90
2019-05-02T23:18:31.623Z,7.03
2019-05-02T23:20:58.380Z,6.63
2019-05-02T23:23:25.088Z,6.97
2019-05-02T23:26:09.160Z,6.40
2019-05-02T23:28:37.435Z,5.30
2019-05-02T23:31:04.344Z,6.00
2019-05-02T23:33:51.482Z,6.10
2019-05-02T23:36:18.257Z,6.40
2019-05-02T23:38:45.251Z,6.60
2019-05-02T23:41:12.603Z,6.17
2019-05-02T23:43:41.626Z,7.13
2019-05-02T23:46:08.551Z,7.90
2019-05-02T23:48:35.415Z,7.03
2019-05-02T23:51:02.698Z,7.60
2019-05-02T23:53:31.473Z,7.57
2019-05-02T23:55:58.152Z,7.60
2019-05-02T23:58:25.317Z,7.40
